Time;durP1;ratioP1;P1;durP2;ratioP2;P2;SDS_P1;SDS_P2;PMS_P1;PMS_P2;Temp;Humidity;BMP_temperature;BMP_pressure;BME280_temperature;BME280_humidity;BME280_pressure;Samples;Min_cycle;Max_cycle;Signal;HPM_P1;HPM_P2
2023/12/11 00:00:28;;;;;;;22.13;6.10;;;14.10;99.90;;;;;;5025073;28;20120;-36
2023/12/11 00:02:54;;;;;;;21.15;5.72;;;14.50;99.90;;;;;;5028232;28;20041;-34
2023/12/11 00:05:20;;;;;;;22.08;6.80;;;14.80;99.90;;;;;;5028203;28;20049;-33
2023/12/11 00:07:45;;;;;;;20.35;5.40;;;14.80;99.90;;;;;;5029172;28;20527;-33
2023/12/11 00:10:11;;;;;;;20.92;6.00;;;14.50;99.90;;;;;;5026538;28;20428;-33
2023/12/11 00:12:37;;;;;;;27.40;7.07;;;14.60;99.90;;;;;;5024916;28;20061;-35
2023/12/11 00:15:03;;;;;;;20.42;5.72;;;14.30;99.90;;;;;;5026499;28;20032;-33
2023/12/11 00:17:29;;;;;;;22.20;5.88;;;14.60;99.90;;;;;;5023727;28;20048;-33
2023/12/11 00:19:54;;;;;;;17.73;5.32;;;14.50;99.90;;;;;;5033866;28;20033;-35
2023/12/11 00:22:20;;;;;;;23.60;6.25;;;14.70;99.90;;;;;;5025326;28;20042;-33
2023/12/11 00:24:46;;;;;;;21.35;6.32;;;14.20;99.90;;;;;;5022878;28;20045;-34
2023/12/11 00:27:14;;;;;;;25.70;5.78;;;14.50;99.90;;;;;;5025483;28;20030;-31
2023/12/11 00:29:40;;;;;;;23.23;5.72;;;14.50;99.90;;;;;;5023089;28;20516;-35
2023/12/11 00:32:06;;;;;;;14.73;5.13;;;14.70;99.90;;;;;;5024024;28;20124;-34
2023/12/11 00:34:32;;;;;;;24.13;7.10;;;14.20;99.90;;;;;;5025620;28;20044;-33
2023/12/11 00:36:58;;;;;;;25.23;6.68;;;14.50;99.90;;;;;;5026218;28;20088;-34
2023/12/11 00:39:24;;;;;;;20.75;5.75;;;14.40;99.90;;;;;;5033349;28;20033;-34
2023/12/11 00:41:50;;;;;;;18.30;6.22;;;14.20;99.90;;;;;;5028376;28;20052;-33
2023/12/11 00:44:16;;;;;;;22.25;7.13;;;14.60;99.90;;;;;;5029267;28;20049;-33
2023/12/11 00:46:41;;;;;;;28.85;6.10;;;14.90;99.90;;;;;;5027104;28;20419;-34
2023/12/11 00:49:08;;;;;;;21.17;5.35;;;14.30;99.90;;;;;;5029173;28;20064;-35
2023/12/11 00:51:34;;;;;;;22.05;5.30;;;15.00;99.90;;;;;;5022469;28;20073;-34
2023/12/11 00:54:00;;;;;;;19.20;6.05;;;14.40;99.90;;;;;;5028977;28;20140;-34
2023/12/11 00:56:25;;;;;;;22.67;5.75;;;14.40;99.90;;;;;;5027077;28;20096;-33
2023/12/11 00:58:51;;;;;;;21.02;5.43;;;14.30;99.90;;;;;;5029827;28;20079;-34
2023/12/11 01:01:17;;;;;;;21.95;5.50;;;14.30;99.90;;;;;;5028854;28;20052;-36
2023/12/11 01:03:43;;;;;;;21.05;5.32;;;14.50;99.90;;;;;;5031570;28;20040;-34
2023/12/11 01:06:09;;;;;;;22.10;5.65;;;14.50;99.90;;;;;;5024926;28;20037;-33
2023/12/11 01:08:38;;;;;;;22.20;6.50;;;14.20;99.90;;;;;;5025740;28;20461;-31
2023/12/11 01:11:05;;;;;;;18.90;6.32;;;14.30;99.90;;;;;;5021861;28;20049;-32
2023/12/11 01:13:31;;;;;;;23.50;6.47;;;14.00;99.90;;;;;;5031317;28;20064;-32
2023/12/11 01:15:57;;;;;;;20.38;5.70;;;14.10;99.90;;;;;;5030601;28;20064;-35
2023/12/11 01:18:23;;;;;;;17.55;4.90;;;14.80;99.90;;;;;;5027007;28;21775;-34
2023/12/11 01:20:50;;;;;;;18.05;4.78;;;14.50;99.90;;;;;;5022792;28;20029;-32
2023/12/11 01:23:15;;;;;;;19.73;5.25;;;14.10;99.90;;;;;;5023404;28;20049;-34
2023/12/11 01:25:41;;;;;;;18.17;4.80;;;14.90;99.90;;;;;;5028485;28;20044;-34
2023/12/11 01:28:08;;;;;;;21.17;6.25;;;14.40;99.90;;;;;;5029265;28;20034;-34
2023/12/11 01:30:33;;;;;;;22.40;5.82;;;14.10;99.90;;;;;;5031156;28;20069;-34
2023/12/11 01:32:59;;;;;;;24.50;6.75;;;14.30;99.90;;;;;;5023778;28;20076;-34
2023/12/11 01:35:24;;;;;;;16.85;5.50;;;14.00;99.90;;;;;;5029386;28;20084;-34
2023/12/11 01:37:50;;;;;;;19.60;4.88;;;14.30;99.90;;;;;;5028740;28;20045;-33
2023/12/11 01:40:16;;;;;;;19.65;5.22;;;14.10;99.90;;;;;;5036515;28;20172;-33
2023/12/11 01:42:41;;;;;;;17.50;4.45;;;14.80;99.90;;;;;;5028293;28;20056;-33
2023/12/11 01:45:08;;;;;;;16.63;4.85;;;14.70;99.90;;;;;;5039072;28;20034;-33
2023/12/11 01:47:33;;;;;;;15.57;4.43;;;14.60;99.90;;;;;;5028571;28;20033;-32
2023/12/11 01:49:59;;;;;;;16.45;4.88;;;14.30;99.90;;;;;;5029740;28;20044;-34
2023/12/11 01:52:25;;;;;;;18.42;4.45;;;14.70;99.90;;;;;;5025857;28;20040;-34
2023/12/11 01:54:52;;;;;;;16.48;4.47;;;14.20;99.90;;;;;;5025399;28;20405;-34
2023/12/11 01:57:17;;;;;;;16.58;4.18;;;14.60;99.90;;;;;;5028186;28;20060;-33
2023/12/11 01:59:44;;;;;;;16.13;4.45;;;14.50;99.90;;;;;;5025306;28;20037;-34
2023/12/11 02:02:10;;;;;;;20.38;5.30;;;14.60;99.90;;;;;;5029132;28;20041;-33
2023/12/11 02:04:36;;;;;;;16.60;4.63;;;13.80;99.90;;;;;;5027350;28;20549;-34
2023/12/11 02:07:02;;;;;;;16.92;5.05;;;14.20;99.90;;;;;;5021972;28;20041;-33
2023/12/11 02:09:28;;;;;;;14.98;4.75;;;14.00;99.90;;;;;;5026837;28;20049;-32
2023/12/11 02:11:55;;;;;;;18.45;5.05;;;14.10;99.90;;;;;;5025195;28;20079;-33
2023/12/11 02:14:22;;;;;;;20.55;4.70;;;14.30;99.90;;;;;;5020879;28;20496;-33
2023/12/11 02:16:48;;;;;;;18.83;4.88;;;14.10;99.90;;;;;;5029483;28;20049;-32
2023/12/11 02:19:14;;;;;;;20.52;5.95;;;14.70;99.90;;;;;;5030015;28;20084;-37
2023/12/11 02:21:39;;;;;;;17.02;4.50;;;14.10;99.90;;;;;;5030647;28;20037;-34
2023/12/11 02:24:10;;;;;;;17.63;4.63;;;14.70;99.90;;;;;;5028179;28;20121;-34
2023/12/11 02:26:36;;;;;;;18.58;5.03;;;13.70;99.90;;;;;;5028130;28;20041;-33
2023/12/11 02:29:02;;;;;;;19.48;4.35;;;14.40;99.90;;;;;;5027312;28;21187;-36
2023/12/11 02:31:28;;;;;;;19.27;5.60;;;14.30;99.90;;;;;;5025237;28;20076;-34
2023/12/11 02:33:53;;;;;;;21.45;4.82;;;14.30;99.90;;;;;;5026924;28;20060;-34
2023/12/11 02:36:19;;;;;;;24.23;5.95;;;14.20;99.90;;;;;;5023315;28;20466;-34
2023/12/11 02:38:45;;;;;;;20.52;5.90;;;14.40;99.90;;;;;;5028689;28;20033;-32
2023/12/11 02:41:10;;;;;;;18.65;5.10;;;14.30;99.90;;;;;;5028586;28;20076;-36
2023/12/11 02:43:36;;;;;;;17.67;4.80;;;14.40;99.90;;;;;;5028936;28;20045;-33
2023/12/11 02:46:02;;;;;;;24.65;6.35;;;14.50;99.90;;;;;;5026710;28;20049;-34
2023/12/11 02:48:28;;;;;;;19.60;5.32;;;14.60;99.90;;;;;;5029468;28;20565;-35
2023/12/11 02:50:54;;;;;;;21.40;5.40;;;13.70;99.90;;;;;;5025065;28;20119;-34
2023/12/11 02:53:20;;;;;;;21.20;6.18;;;14.00;99.90;;;;;;5018985;28;20080;-36
2023/12/11 02:55:45;;;;;;;21.75;5.93;;;13.70;99.90;;;;;;5022645;28;20052;-36
2023/12/11 02:58:11;;;;;;;15.40;5.65;;;14.10;99.90;;;;;;5019869;28;20121;-37
2023/12/11 03:00:37;;;;;;;21.38;5.97;;;14.30;99.90;;;;;;5024103;28;20041;-33
2023/12/11 03:03:03;;;;;;;18.40;5.65;;;14.30;99.90;;;;;;5015761;28;20053;-33
2023/12/11 03:05:28;;;;;;;22.02;5.93;;;14.10;99.90;;;;;;5020740;28;20116;-34
2023/12/11 03:07:54;;;;;;;22.13;5.53;;;13.90;99.90;;;;;;5027947;28;20053;-34
2023/12/11 03:10:20;;;;;;;20.45;6.13;;;14.50;99.90;;;;;;5019571;28;20492;-34
2023/12/11 03:12:46;;;;;;;24.48;5.60;;;14.10;99.90;;;;;;5029613;28;20505;-30
2023/12/11 03:15:12;;;;;;;18.95;5.22;;;13.80;99.90;;;;;;5027384;28;20092;-35
2023/12/11 03:17:37;;;;;;;19.80;4.68;;;14.20;99.90;;;;;;5042667;28;20045;-35
2023/12/11 03:20:05;;;;;;;22.90;6.03;;;14.30;99.90;;;;;;5021115;28;20061;-33
2023/12/11 03:22:31;;;;;;;22.63;5.82;;;13.90;99.90;;;;;;5024651;28;20049;-31
2023/12/11 03:24:56;;;;;;;19.77;5.47;;;14.30;99.90;;;;;;5028459;28;20404;-33
2023/12/11 03:27:22;;;;;;;23.58;5.53;;;14.20;99.90;;;;;;5027574;28;20041;-33
2023/12/11 03:29:49;;;;;;;18.15;5.90;;;13.90;99.90;;;;;;5024649;28;20037;-33
2023/12/11 03:32:15;;;;;;;21.60;6.20;;;13.80;99.90;;;;;;5024362;28;20034;-33
2023/12/11 03:34:40;;;;;;;22.50;5.82;;;14.00;99.90;;;;;;5029223;28;20043;-33
2023/12/11 03:37:06;;;;;;;18.02;6.03;;;14.10;99.90;;;;;;5003623;28;20445;-33
2023/12/11 03:39:32;;;;;;;22.05;5.53;;;14.40;99.90;;;;;;5028217;28;20037;-33
2023/12/11 03:41:58;;;;;;;16.38;4.88;;;14.00;99.90;;;;;;5017291;28;20535;-33
2023/12/11 03:44:24;;;;;;;18.15;5.28;;;14.50;99.90;;;;;;5028988;28;20039;-34
2023/12/11 03:46:49;;;;;;;20.38;5.63;;;14.30;99.90;;;;;;5028679;28;20038;-32
2023/12/11 03:49:16;;;;;;;18.27;5.50;;;13.90;99.90;;;;;;5019796;28;20049;-32
2023/12/11 03:51:46;;;;;;;18.65;4.68;;;14.10;99.90;;;;;;5020656;28;20050;-33
2023/12/11 03:54:12;;;;;;;22.85;5.28;;;14.10;99.90;;;;;;5019025;28;20512;-34
2023/12/11 03:56:39;;;;;;;16.45;5.25;;;14.00;99.90;;;;;;5026329;28;20036;-34
2023/12/11 03:59:05;;;;;;;17.13;4.85;;;14.40;99.90;;;;;;5026355;28;20037;-34
2023/12/11 04:01:31;;;;;;;16.77;4.60;;;14.10;99.90;;;;;;5024089;28;20045;-33
2023/12/11 04:03:59;;;;;;;25.13;5.78;;;13.90;99.90;;;;;;5028126;28;20041;-32
2023/12/11 04:06:24;;;;;;;23.13;5.82;;;13.60;99.90;;;;;;5027346;28;20075;-35
2023/12/11 04:08:50;;;;;;;17.77;5.25;;;14.30;99.90;;;;;;5026152;28;20041;-34
2023/12/11 04:11:17;;;;;;;23.02;5.90;;;;;;;;;;5027903;28;20046;-34
2023/12/11 04:13:43;;;;;;;19.17;5.47;;;14.50;99.90;;;;;;5018810;28;20033;-34
2023/12/11 04:16:09;;;;;;;17.88;4.68;;;14.90;99.90;;;;;;5032511;28;20350;-31
2023/12/11 04:18:36;;;;;;;19.55;5.28;;;14.20;99.90;;;;;;5031252;28;20033;-33
2023/12/11 04:21:02;;;;;;;21.25;5.95;;;14.30;99.90;;;;;;5031252;28;20052;-34
2023/12/11 04:23:27;;;;;;;18.58;4.93;;;14.70;99.90;;;;;;5026533;28;20374;-35
2023/12/11 04:25:54;;;;;;;16.75;5.05;;;14.10;99.90;;;;;;5029887;28;20034;-31
2023/12/11 04:28:21;;;;;;;22.20;5.95;;;14.30;99.90;;;;;;5029626;28;20049;-34
2023/12/11 04:30:47;;;;;;;19.40;5.63;;;14.20;99.90;;;;;;5027757;28;20042;-34
2023/12/11 04:33:12;;;;;;;20.90;5.65;;;14.10;99.90;;;;;;5031596;28;20036;-34
2023/12/11 04:35:38;;;;;;;19.00;4.32;;;14.20;99.90;;;;;;5031705;28;20033;-35
2023/12/11 04:38:03;;;;;;;23.15;5.90;;;14.50;99.90;;;;;;5031372;28;20069;-34
2023/12/11 04:40:29;;;;;;;18.83;5.07;;;14.10;99.90;;;;;;5032566;28;20040;-34
2023/12/11 04:42:55;;;;;;;16.95;4.90;;;14.00;99.90;;;;;;5031754;28;20033;-35
2023/12/11 04:45:21;;;;;;;18.17;5.47;;;14.60;99.90;;;;;;5030336;28;20025;-34
2023/12/11 04:47:46;;;;;;;16.98;4.22;;;14.60;99.90;;;;;;5031007;28;20175;-33
2023/12/11 04:50:12;;;;;;;18.90;4.88;;;14.30;99.90;;;;;;5030326;28;20539;-34
2023/12/11 04:52:38;;;;;;;17.05;5.00;;;14.10;99.90;;;;;;5032277;28;20053;-34
2023/12/11 04:55:04;;;;;;;15.82;5.00;;;14.10;99.90;;;;;;5031276;28;20041;-34
2023/12/11 04:57:29;;;;;;;15.60;4.78;;;14.20;99.90;;;;;;5029598;28;20045;-33
2023/12/11 04:59:55;;;;;;;19.40;5.35;;;14.10;99.90;;;;;;5031729;28;20416;-31
2023/12/11 05:02:21;;;;;;;18.40;4.93;;;14.80;99.90;;;;;;5029873;28;20179;-35
2023/12/11 05:04:46;;;;;;;17.50;4.35;;;14.50;99.90;;;;;;5031545;28;20033;-35
2023/12/11 05:07:12;;;;;;;16.25;4.97;;;14.20;99.90;;;;;;5026927;28;20041;-34
2023/12/11 05:09:38;;;;;;;17.02;4.50;;;14.60;99.90;;;;;;5031616;28;20504;-33
2023/12/11 05:12:04;;;;;;;16.85;4.50;;;14.20;99.90;;;;;;5031026;28;20042;-34
2023/12/11 05:14:29;;;;;;;17.40;5.70;;;14.60;99.90;;;;;;5027757;28;20049;-34
2023/12/11 05:16:55;;;;;;;18.65;5.18;;;14.40;99.90;;;;;;5030939;28;20044;-34
2023/12/11 05:19:20;;;;;;;20.45;4.60;;;14.50;99.90;;;;;;5030339;28;20492;-33
2023/12/11 05:21:46;;;;;;;17.80;4.63;;;14.50;99.90;;;;;;5031287;28;20447;-33
2023/12/11 05:24:12;;;;;;;14.85;4.80;;;14.40;99.90;;;;;;5030830;28;20033;-34
2023/12/11 05:26:38;;;;;;;21.77;5.78;;;14.90;99.90;;;;;;5026056;28;20033;-36
2023/12/11 05:29:04;;;;;;;16.17;4.90;;;14.60;99.90;;;;;;5023651;28;20033;-33
2023/12/11 05:31:31;;;;;;;17.15;5.30;;;14.40;99.90;;;;;;5019501;28;20527;-34
2023/12/11 05:33:56;;;;;;;20.48;5.43;;;14.80;99.90;;;;;;5035427;28;20041;-32
2023/12/11 05:36:22;;;;;;;48.00;12.02;;;14.70;99.90;;;;;;5026162;28;20144;-34
2023/12/11 05:38:48;;;;;;;48.92;11.95;;;14.60;99.90;;;;;;5021168;28;20038;-32
2023/12/11 05:41:13;;;;;;;35.90;9.88;;;14.80;99.90;;;;;;5022817;28;20037;-35
2023/12/11 05:43:39;;;;;;;38.45;13.00;;;14.80;99.90;;;;;;5019227;28;20076;-33
2023/12/11 05:46:06;;;;;;;61.08;17.40;;;15.20;99.90;;;;;;5025749;28;20044;-33
2023/12/11 05:48:32;;;;;;;58.28;17.92;;;14.80;99.90;;;;;;5023525;28;20048;-34
2023/12/11 05:50:58;;;;;;;51.15;14.52;;;14.60;99.90;;;;;;5027992;28;20037;-34
2023/12/11 05:53:24;;;;;;;32.20;10.13;;;14.70;99.90;;;;;;5022298;28;20037;-35
2023/12/11 05:55:50;;;;;;;37.58;10.45;;;14.30;99.90;;;;;;5025414;28;20544;-32
2023/12/11 05:58:15;;;;;;;29.73;7.80;;;14.80;99.90;;;;;;5021497;28;20048;-33
2023/12/11 06:00:41;;;;;;;33.53;8.50;;;14.20;99.90;;;;;;5020000;28;20782;-34
2023/12/11 06:03:07;;;;;;;24.88;7.18;;;14.40;99.90;;;;;;5025975;28;20029;-32
2023/12/11 06:05:33;;;;;;;22.85;7.47;;;14.40;99.90;;;;;;5024671;28;20420;-33
2023/12/11 06:07:59;;;;;;;22.42;6.68;;;14.10;99.90;;;;;;5024260;28;20033;-34
2023/12/11 06:10:24;;;;;;;18.55;5.43;;;14.10;99.90;;;;;;5026020;28;20100;-33
2023/12/11 06:12:50;;;;;;;19.52;5.97;;;14.50;99.90;;;;;;5026566;28;20041;-34
2023/12/11 06:15:16;;;;;;;25.40;6.25;;;14.10;99.90;;;;;;5035513;28;20053;-34
2023/12/11 06:17:41;;;;;;;20.08;6.00;;;14.10;99.90;;;;;;5024381;28;20041;-36
2023/12/11 06:20:07;;;;;;;20.08;5.63;;;14.10;99.90;;;;;;5023588;28;20031;-34
2023/12/11 06:22:33;;;;;;;21.27;6.30;;;14.30;99.90;;;;;;5028033;28;20033;-33
2023/12/11 06:24:59;;;;;;;20.20;5.68;;;15.00;99.90;;;;;;5027847;28;20087;-34
2023/12/11 06:27:27;;;;;;;18.48;5.88;;;15.00;99.90;;;;;;5027554;28;20045;-35
2023/12/11 06:29:53;;;;;;;17.73;4.97;;;14.70;99.90;;;;;;5026529;28;20385;-35
2023/12/11 06:32:19;;;;;;;23.13;5.78;;;14.40;99.90;;;;;;5028496;28;20457;-34
2023/12/11 06:34:45;;;;;;;17.45;4.85;;;14.40;99.90;;;;;;5019335;28;20085;-34
2023/12/11 06:37:11;;;;;;;23.67;5.93;;;14.20;99.90;;;;;;5023722;28;20045;-34
2023/12/11 06:39:37;;;;;;;19.65;6.03;;;14.40;99.90;;;;;;5022078;28;20042;-33
2023/12/11 06:42:03;;;;;;;19.17;5.78;;;14.40;99.90;;;;;;5033834;28;20046;-33
2023/12/11 06:44:29;;;;;;;15.57;5.13;;;14.70;99.90;;;;;;5024066;28;20033;-34
2023/12/11 06:46:55;;;;;;;14.70;4.43;;;14.60;99.90;;;;;;5025398;28;20562;-34
2023/12/11 06:49:21;;;;;;;13.52;4.93;;;14.80;99.90;;;;;;5027981;28;20073;-33
2023/12/11 06:51:46;;;;;;;20.00;5.13;;;14.30;99.90;;;;;;5021482;28;20040;-33
2023/12/11 06:54:12;;;;;;;17.63;4.70;;;14.20;99.90;;;;;;5027203;28;20492;-34
2023/12/11 06:56:38;;;;;;;14.55;4.80;;;14.60;99.90;;;;;;5023716;28;20033;-33
2023/12/11 06:59:04;;;;;;;17.10;4.35;;;14.10;99.90;;;;;;5030126;28;20109;-36
2023/12/11 07:01:33;;;;;;;17.38;5.05;;;14.80;99.90;;;;;;5023043;28;20041;-34
2023/12/11 07:03:59;;;;;;;12.63;4.30;;;14.80;99.90;;;;;;5025405;28;20030;-32
2023/12/11 07:06:26;;;;;;;17.52;4.65;;;14.60;99.90;;;;;;5017607;28;21137;-33
2023/12/11 07:08:51;;;;;;;12.00;4.80;;;14.60;99.90;;;;;;5028415;28;20040;-33
2023/12/11 07:11:17;;;;;;;17.80;4.10;;;14.80;99.90;;;;;;5019358;28;20041;-34
2023/12/11 07:13:43;;;;;;;15.70;4.07;;;15.10;99.90;;;;;;5021126;28;20525;-34
2023/12/11 07:16:09;;;;;;;15.68;4.30;;;15.00;99.90;;;;;;5027216;28;20033;-35
2023/12/11 07:18:36;;;;;;;13.70;4.80;;;14.80;99.90;;;;;;5016147;28;20536;-32
2023/12/11 07:21:02;;;;;;;12.68;3.88;;;14.70;99.90;;;;;;5017243;28;20419;-36
2023/12/11 07:23:28;;;;;;;11.90;3.72;;;14.30;99.90;;;;;;5018482;28;20690;-32
2023/12/11 07:25:55;;;;;;;11.43;3.88;;;15.10;99.90;;;;;;5017497;28;20033;-32
2023/12/11 07:28:21;;;;;;;14.63;3.40;;;14.30;99.90;;;;;;5029190;28;20535;-31
2023/12/11 07:30:47;;;;;;;13.68;4.03;;;15.00;99.90;;;;;;5018408;28;20120;-35
2023/12/11 07:33:12;;;;;;;13.27;4.10;;;14.80;99.90;;;;;;5017995;28;20432;-31
2023/12/11 07:35:38;;;;;;;17.13;4.63;;;14.70;99.90;;;;;;5019143;28;20362;-33
2023/12/11 07:38:03;;;;;;;13.30;4.05;;;14.60;99.90;;;;;;4997517;28;20045;-33
2023/12/11 07:40:29;;;;;;;16.02;4.10;;;14.40;99.90;;;;;;5016717;28;20051;-34
2023/12/11 07:42:57;;;;;;;13.55;3.75;;;14.70;99.90;;;;;;5018956;28;20049;-33
2023/12/11 07:45:24;;;;;;;16.40;4.50;;;14.70;99.90;;;;;;5015519;28;20497;-33
2023/12/11 07:47:49;;;;;;;12.85;4.63;;;14.50;99.90;;;;;;5021656;28;20041;-33
2023/12/11 07:50:16;;;;;;;11.18;3.45;;;15.10;99.90;;;;;;5021464;28;20072;-31
2023/12/11 07:52:41;;;;;;;17.48;4.13;;;15.20;99.90;;;;;;5022735;28;20132;-32
2023/12/11 07:55:07;;;;;;;14.60;3.78;;;14.60;99.90;;;;;;5023732;28;20191;-34
2023/12/11 07:57:33;;;;;;;12.30;3.63;;;14.50;99.90;;;;;;5019154;28;20049;-33
2023/12/11 07:59:59;;;;;;;12.70;3.08;;;14.80;99.90;;;;;;5020412;28;20042;-34
2023/12/11 08:02:25;;;;;;;12.18;2.92;;;15.00;99.90;;;;;;5021200;28;20431;-33
2023/12/11 08:04:51;;;;;;;10.38;3.40;;;14.90;99.90;;;;;;5021687;28;20033;-33
2023/12/11 08:07:18;;;;;;;10.00;3.38;;;14.50;99.90;;;;;;5020250;28;20049;-33
2023/12/11 08:09:44;;;;;;;12.20;2.90;;;15.10;99.90;;;;;;5022217;28;20558;-33
2023/12/11 08:12:09;;;;;;;12.65;3.20;;;14.80;99.90;;;;;;5021718;28;20049;-33
2023/12/11 08:14:36;;;;;;;11.77;3.97;;;14.90;99.90;;;;;;5020213;28;20127;-34
2023/12/11 08:17:03;;;;;;;11.00;2.60;;;14.60;99.90;;;;;;5016440;28;20058;-33
2023/12/11 08:19:28;;;;;;;11.15;3.42;;;14.60;99.90;;;;;;5015150;28;20034;-32
2023/12/11 08:21:54;;;;;;;13.30;3.67;;;14.70;99.90;;;;;;5018408;28;20386;-34
2023/12/11 08:24:20;;;;;;;9.75;2.90;;;14.70;99.90;;;;;;5018278;28;20064;-35
2023/12/11 08:26:46;;;;;;;10.18;3.33;;;14.90;99.90;;;;;;5022418;28;20041;-33
2023/12/11 08:29:12;;;;;;;13.02;3.13;;;15.20;99.90;;;;;;5016365;28;20041;-33
2023/12/11 08:31:38;;;;;;;12.07;3.05;;;14.40;99.90;;;;;;5019725;28;20041;-33
2023/12/11 08:34:03;;;;;;;11.60;2.80;;;15.10;99.90;;;;;;5020115;28;20079;-33
2023/12/11 08:36:29;;;;;;;11.45;3.13;;;14.70;99.90;;;;;;5019928;28;20788;-33
2023/12/11 08:38:55;;;;;;;9.52;2.88;;;14.30;99.90;;;;;;5019752;28;20433;-34
2023/12/11 08:41:20;;;;;;;9.50;2.88;;;14.60;99.90;;;;;;5019147;28;20033;-33
2023/12/11 08:43:49;;;;;;;13.40;3.05;;;15.00;99.90;;;;;;5023223;28;20378;-32
2023/12/11 08:46:15;;;;;;;11.32;3.28;;;14.90;99.90;;;;;;5019599;28;20489;-32
2023/12/11 08:48:43;;;;;;;9.77;3.00;;;14.60;99.90;;;;;;5019427;28;20069;-32
2023/12/11 08:51:09;;;;;;;10.48;2.97;;;14.70;99.90;;;;;;5020780;28;20087;-33
2023/12/11 08:53:34;;;;;;;9.90;2.50;;;14.30;99.90;;;;;;5019834;28;20658;-33
2023/12/11 08:56:01;;;;;;;11.32;2.90;;;14.50;99.90;;;;;;5019530;28;20505;-33
2023/12/11 08:58:27;;;;;;;11.68;2.90;;;14.40;99.90;;;;;;5020425;28;20107;-35
2023/12/11 09:00:53;;;;;;;10.73;2.90;;;15.10;99.90;;;;;;5021051;28;20500;-33
2023/12/11 09:03:18;;;;;;;15.75;2.70;;;14.40;99.90;;;;;;5022624;28;20048;-33
2023/12/11 09:05:44;;;;;;;14.27;3.38;;;14.50;99.90;;;;;;5022868;28;20043;-33
2023/12/11 09:08:10;;;;;;;13.55;3.22;;;14.80;99.90;;;;;;5020881;28;20052;-35
2023/12/11 09:10:36;;;;;;;8.57;2.70;;;14.70;99.90;;;;;;5016675;28;20545;-34
2023/12/11 09:13:02;;;;;;;10.82;3.08;;;14.80;99.90;;;;;;5020947;28;20514;-34
2023/12/11 09:15:28;;;;;;;11.52;2.45;;;14.40;99.90;;;;;;5019622;28;20049;-33
2023/12/11 09:17:54;;;;;;;12.55;3.05;;;14.30;99.90;;;;;;5018788;28;20045;-34
2023/12/11 09:20:20;;;;;;;8.55;2.30;;;14.50;99.90;;;;;;5020948;28;20039;-34
2023/12/11 09:22:46;;;;;;;10.60;2.05;;;14.20;99.90;;;;;;5021613;28;20271;-35
2023/12/11 09:25:12;;;;;;;9.60;2.45;;;14.40;99.90;;;;;;5022223;28;20052;-32
2023/12/11 09:27:38;;;;;;;10.27;3.67;;;14.30;99.90;;;;;;5021251;28;20037;-34
2023/12/11 09:30:06;;;;;;;11.43;2.70;;;13.90;99.90;;;;;;5018825;28;20505;-34
2023/12/11 09:32:32;;;;;;;12.10;2.42;;;14.30;99.90;;;;;;5020478;28;20156;-34
2023/12/11 09:34:58;;;;;;;11.55;2.92;;;15.00;99.90;;;;;;5022295;28;20112;-33
2023/12/11 09:37:23;;;;;;;8.95;2.28;;;14.30;99.90;;;;;;5018824;28;20044;-34
2023/12/11 09:39:49;;;;;;;11.57;3.05;;;14.20;99.90;;;;;;5020445;28;20401;-33
2023/12/11 09:42:15;;;;;;;13.10;2.85;;;14.30;99.90;;;;;;5019972;28;20033;-32
2023/12/11 09:44:45;;;;;;;11.73;3.70;;;14.00;99.90;;;;;;5020581;28;20455;-32
2023/12/11 09:47:19;;;;;;;10.55;2.42;;;14.00;99.90;;;;;;5023699;28;20504;-33
2023/12/11 09:49:46;;;;;;;;;;;14.40;99.90;;;;;;5019348;28;20049;-32
2023/12/11 09:52:13;;;;;;;10.48;2.78;;;14.40;99.90;;;;;;5019092;28;19917;-31
2023/12/11 09:54:39;;;;;;;12.38;2.67;;;14.60;99.90;;;;;;5019558;28;20414;-33
2023/12/11 09:57:09;;;;;;;11.95;2.97;;;13.90;99.90;;;;;;5018762;28;20057;-33
2023/12/11 09:59:35;;;;;;;12.65;3.47;;;14.10;99.90;;;;;;5018970;28;20119;-33
2023/12/11 10:02:03;;;;;;;12.85;2.67;;;14.20;99.90;;;;;;5020160;28;20433;-33
2023/12/11 10:04:29;;;;;;;11.48;3.25;;;14.10;99.90;;;;;;5020822;28;20140;-33
2023/12/11 10:06:55;;;;;;;11.68;3.00;;;14.20;99.90;;;;;;5020548;28;20527;-34
2023/12/11 10:09:33;;;;;;;9.27;3.03;;;14.40;99.90;;;;;;5018887;28;20033;-37
2023/12/11 10:12:03;;;;;;;9.85;2.80;;;14.10;99.90;;;;;;5017416;28;20041;-37
2023/12/11 10:14:30;;;;;;;13.77;3.63;;;14.60;99.90;;;;;;5018410;28;20051;-34
2023/12/11 10:16:57;;;;;;;12.27;2.70;;;14.50;99.90;;;;;;5018663;28;20441;-34
2023/12/11 10:19:32;;;;;;;10.70;2.60;;;14.10;99.90;;;;;;5017757;28;20038;-32
2023/12/11 10:22:00;;;;;;;11.90;3.25;;;14.30;99.90;;;;;;5014961;28;20037;-34
2023/12/11 10:24:26;;;;;;;11.18;3.03;;;14.50;99.90;;;;;;5019647;28;20045;-35
2023/12/11 10:26:56;;;;;;;8.27;2.60;;;14.20;99.90;;;;;;5020475;28;20500;-34
2023/12/11 10:29:30;;;;;;;11.60;3.55;;;13.90;99.90;;;;;;5018485;28;20090;-35
2023/12/11 10:32:03;;;;;;;12.13;2.50;;;14.10;99.90;;;;;;5019686;28;20186;-36
2023/12/11 10:34:50;;;;;;;9.65;2.65;;;13.90;99.90;;;;;;5019808;28;20052;-34
2023/12/11 10:37:17;;;;;;;10.85;3.00;;;14.10;99.90;;;;;;5017034;28;20156;-35
2023/12/11 10:39:53;;;;;;;10.82;2.58;;;14.00;99.90;;;;;;5018705;28;20049;-40
2023/12/11 10:42:19;;;;;;;13.80;3.15;;;14.00;99.90;;;;;;5019298;28;20045;-36
2023/12/11 10:44:45;;;;;;;10.30;2.78;;;14.20;99.90;;;;;;5020333;28;20032;-33
2023/12/11 10:47:12;;;;;;;13.32;3.05;;;13.90;99.90;;;;;;5021745;28;20053;-33
2023/12/11 10:49:39;;;;;;;11.30;2.70;;;14.00;99.90;;;;;;5017148;28;20072;-34
2023/12/11 10:52:05;;;;;;;11.73;2.65;;;14.20;99.90;;;;;;5020458;28;20060;-33
2023/12/11 10:54:32;;;;;;;8.98;2.20;;;14.10;99.90;;;;;;5017417;28;20421;-35
2023/12/11 10:57:01;;;;;;;9.23;2.53;;;14.20;99.90;;;;;;5018132;28;20107;-34
2023/12/11 10:59:30;;;;;;;12.82;2.40;;;14.30;99.90;;;;;;5018774;28;20047;-33
2023/12/11 11:01:58;;;;;;;8.38;2.28;;;14.20;99.90;;;;;;5019103;28;20064;-32
2023/12/11 11:04:25;;;;;;;7.15;1.75;;;13.70;99.90;;;;;;5020889;28;20037;-33
2023/12/11 11:07:01;;;;;;;8.27;2.05;;;14.50;99.90;;;;;;5019025;28;20517;-32
2023/12/11 11:09:35;;;;;;;9.77;1.98;;;13.70;99.90;;;;;;5020012;28;20103;-32
2023/12/11 11:12:07;;;;;;;;;;;14.00;99.90;;;;;;5019855;28;20051;-35
2023/12/11 11:14:47;;;;;;;6.15;1.83;;;13.90;99.90;;;;;;5019635;28;19921;-34
2023/12/11 11:17:13;;;;;;;8.82;2.00;;;13.50;99.90;;;;;;5018145;28;20056;-35
2023/12/11 11:20:12;;;;;;;8.10;2.22;;;14.20;99.90;;;;;;5020190;28;20037;-33
2023/12/11 11:22:38;;;;;;;8.77;2.20;;;14.00;99.90;;;;;;5017743;28;20330;-34
2023/12/11 11:25:30;;;;;;;9.48;2.45;;;13.40;99.90;;;;;;5020094;28;20520;-34
2023/12/11 11:27:56;;;;;;;5.80;1.65;;;13.80;99.90;;;;;;5017838;28;20587;-34
2023/12/11 11:30:41;;;;;;;9.95;2.70;;;13.70;99.90;;;;;;5019426;28;20063;-35
2023/12/11 11:33:10;;;;;;;14.48;3.08;;;13.60;99.90;;;;;;5017539;28;20124;-34
2023/12/11 11:35:45;;;;;;;11.57;3.05;;;14.00;99.90;;;;;;5015944;28;20044;-36
2023/12/11 11:38:11;;;;;;;11.10;2.80;;;13.30;99.90;;;;;;5017506;28;20072;-32
2023/12/11 11:40:37;;;;;;;10.48;2.85;;;14.20;99.90;;;;;;5015397;28;20041;-34
2023/12/11 11:43:03;;;;;;;11.10;2.60;;;13.60;99.90;;;;;;5014240;28;20602;-34
2023/12/11 11:45:32;;;;;;;11.80;3.13;;;14.00;99.90;;;;;;5017130;28;20073;-34
2023/12/11 11:47:57;;;;;;;11.27;2.22;;;13.70;99.90;;;;;;5014368;28;20084;-33
2023/12/11 11:50:23;;;;;;;12.38;3.28;;;14.00;99.90;;;;;;5017519;28;20061;-34
2023/12/11 11:53:06;;;;;;;12.98;3.22;;;13.70;99.90;;;;;;5018976;28;20183;-34
2023/12/11 11:55:32;;;;;;;9.38;2.35;;;13.60;99.90;;;;;;5016989;28;20455;-34
2023/12/11 11:57:57;;;;;;;10.48;3.35;;;13.70;99.90;;;;;;5017379;28;20044;-34
2023/12/11 12:00:31;;;;;;;9.68;2.30;;;13.60;99.90;;;;;;5017819;28;20037;-34
2023/12/11 12:03:03;;;;;;;10.90;2.57;;;14.00;99.90;;;;;;5019805;28;20033;-34
2023/12/11 12:05:29;;;;;;;10.93;2.15;;;13.80;99.90;;;;;;4998516;28;20045;-33
2023/12/11 12:07:54;;;;;;;8.35;2.03;;;14.00;99.90;;;;;;5017224;28;20041;-34
2023/12/11 12:10:20;;;;;;;8.52;2.08;;;13.50;99.90;;;;;;5018870;28;20120;-34
2023/12/11 12:12:55;;;;;;;10.02;2.67;;;13.90;99.90;;;;;;5018821;28;20034;-34
2023/12/11 12:15:21;;;;;;;9.93;2.30;;;13.50;99.90;;;;;;5014861;28;20049;-33
2023/12/11 12:17:46;;;;;;;10.98;2.13;;;13.60;99.90;;;;;;5019034;28;20037;-36
2023/12/11 12:20:15;;;;;;;14.00;2.30;;;13.80;99.90;;;;;;5019224;28;20474;-31
2023/12/11 12:22:59;;;;;;;8.00;2.17;;;13.60;99.90;;;;;;5014489;28;20050;-32
2023/12/11 12:25:29;;;;;;;6.57;1.70;;;13.70;99.90;;;;;;4997883;28;20040;-34
2023/12/11 12:28:13;;;;;;;8.30;1.98;;;14.00;99.90;;;;;;5017161;28;20049;-34
2023/12/11 12:30:39;;;;;;;8.80;2.40;;;13.50;99.90;;;;;;5019071;28;20048;-34
2023/12/11 12:33:09;;;;;;;8.35;1.75;;;13.50;99.90;;;;;;5020764;28;20052;-34
2023/12/11 12:35:35;;;;;;;10.32;2.10;;;13.30;99.90;;;;;;5023915;28;20060;-34